sensor_id;sensor_type;location;lat;lon;timestamp;P1;durP1;ratioP1;P2;durP2;ratioP2
11396;SDS011;5754;43.726;7.416;2022-09-21T00:02:14;2.15;;;1.73;;
11396;SDS011;5754;43.726;7.416;2022-09-21T00:04:49;2.62;;;2.05;;
11396;SDS011;5754;43.726;7.416;2022-09-21T00:07:23;2.25;;;1.75;;
11396;SDS011;5754;43.726;7.416;2022-09-21T00:09:58;2.50;;;2.03;;
11396;SDS011;5754;43.726;7.416;2022-09-21T00:12:32;2.72;;;2.10;;
11396;SDS011;5754;43.726;7.416;2022-09-21T00:15:11;3.65;;;1.85;;
11396;SDS011;5754;43.726;7.416;2022-09-21T00:17:45;2.45;;;2.00;;
11396;SDS011;5754;43.726;7.416;2022-09-21T00:20:20;3.17;;;1.90;;
11396;SDS011;5754;43.726;7.416;2022-09-21T00:22:54;3.92;;;2.30;;
11396;SDS011;5754;43.726;7.416;2022-09-21T00:25:29;1.98;;;1.73;;
11396;SDS011;5754;43.726;7.416;2022-09-21T00:28:03;3.70;;;1.83;;
11396;SDS011;5754;43.726;7.416;2022-09-21T00:30:38;2.67;;;1.98;;
11396;SDS011;5754;43.726;7.416;2022-09-21T00:33:12;2.95;;;1.60;;
11396;SDS011;5754;43.726;7.416;2022-09-21T00:35:47;3.97;;;2.12;;
11396;SDS011;5754;43.726;7.416;2022-09-21T00:38:21;3.33;;;1.90;;
11396;SDS011;5754;43.726;7.416;2022-09-21T00:40:55;2.35;;;2.05;;
11396;SDS011;5754;43.726;7.416;2022-09-21T00:43:33;3.58;;;1.95;;
11396;SDS011;5754;43.726;7.416;2022-09-21T00:46:13;3.92;;;2.10;;
11396;SDS011;5754;43.726;7.416;2022-09-21T00:48:48;2.90;;;2.03;;
11396;SDS011;5754;43.726;7.416;2022-09-21T00:51:23;2.45;;;1.90;;
11396;SDS011;5754;43.726;7.416;2022-09-21T00:54:02;2.65;;;1.85;;
11396;SDS011;5754;43.726;7.416;2022-09-21T00:56:39;4.03;;;1.85;;
11396;SDS011;5754;43.726;7.416;2022-09-21T00:59:14;2.60;;;1.80;;
11396;SDS011;5754;43.726;7.416;2022-09-21T01:01:51;3.97;;;1.80;;
11396;SDS011;5754;43.726;7.416;2022-09-21T01:04:27;2.25;;;1.92;;
11396;SDS011;5754;43.726;7.416;2022-09-21T01:07:02;2.90;;;2.15;;
11396;SDS011;5754;43.726;7.416;2022-09-21T01:09:39;3.80;;;1.83;;
11396;SDS011;5754;43.726;7.416;2022-09-21T01:12:22;3.83;;;1.67;;
11396;SDS011;5754;43.726;7.416;2022-09-21T01:18:17;3.50;;;1.75;;
11396;SDS011;5754;43.726;7.416;2022-09-21T01:21:16;2.28;;;1.62;;
11396;SDS011;5754;43.726;7.416;2022-09-21T01:32:37;2.80;;;1.80;;
11396;SDS011;5754;43.726;7.416;2022-09-21T01:35:20;3.15;;;2.20;;
11396;SDS011;5754;43.726;7.416;2022-09-21T01:38:01;2.75;;;1.75;;
11396;SDS011;5754;43.726;7.416;2022-09-21T01:40:38;2.50;;;1.67;;
11396;SDS011;5754;43.726;7.416;2022-09-21T01:43:16;4.70;;;2.05;;
11396;SDS011;5754;43.726;7.416;2022-09-21T01:45:53;2.10;;;1.90;;
11396;SDS011;5754;43.726;7.416;2022-09-21T01:48:31;3.70;;;1.95;;
11396;SDS011;5754;43.726;7.416;2022-09-21T01:51:08;3.78;;;2.00;;
11396;SDS011;5754;43.726;7.416;2022-09-21T01:54:17;2.60;;;1.85;;
11396;SDS011;5754;43.726;7.416;2022-09-21T01:56:54;2.37;;;1.90;;
11396;SDS011;5754;43.726;7.416;2022-09-21T02:00:17;2.95;;;1.80;;
11396;SDS011;5754;43.726;7.416;2022-09-21T02:02:54;3.75;;;2.00;;
11396;SDS011;5754;43.726;7.416;2022-09-21T02:05:32;4.60;;;2.10;;
11396;SDS011;5754;43.726;7.416;2022-09-21T02:08:06;4.80;;;2.00;;
11396;SDS011;5754;43.726;7.416;2022-09-21T02:10:44;2.80;;;1.73;;
11396;SDS011;5754;43.726;7.416;2022-09-21T02:13:19;2.78;;;1.92;;
11396;SDS011;5754;43.726;7.416;2022-09-21T02:16:02;2.28;;;2.05;;
11396;SDS011;5754;43.726;7.416;2022-09-21T02:18:56;3.80;;;2.00;;
11396;SDS011;5754;43.726;7.416;2022-09-21T02:21:49;2.80;;;1.70;;
11396;SDS011;5754;43.726;7.416;2022-09-21T02:25:11;2.17;;;1.90;;
11396;SDS011;5754;43.726;7.416;2022-09-21T02:27:49;3.10;;;2.00;;
11396;SDS011;5754;43.726;7.416;2022-09-21T02:30:25;5.47;;;2.22;;
11396;SDS011;5754;43.726;7.416;2022-09-21T02:33:07;4.85;;;1.90;;
11396;SDS011;5754;43.726;7.416;2022-09-21T02:36:03;4.57;;;2.20;;
11396;SDS011;5754;43.726;7.416;2022-09-21T02:38:43;3.65;;;1.85;;
11396;SDS011;5754;43.726;7.416;2022-09-21T02:41:25;4.25;;;2.17;;
11396;SDS011;5754;43.726;7.416;2022-09-21T02:44:05;2.75;;;1.90;;
11396;SDS011;5754;43.726;7.416;2022-09-21T02:46:41;3.90;;;1.87;;
11396;SDS011;5754;43.726;7.416;2022-09-21T02:49:22;3.70;;;2.10;;
11396;SDS011;5754;43.726;7.416;2022-09-21T02:52:00;5.43;;;2.08;;
11396;SDS011;5754;43.726;7.416;2022-09-21T02:54:35;2.80;;;1.80;;
11396;SDS011;5754;43.726;7.416;2022-09-21T02:57:12;4.80;;;1.95;;
11396;SDS011;5754;43.726;7.416;2022-09-21T02:59:48;4.82;;;2.30;;
11396;SDS011;5754;43.726;7.416;2022-09-21T03:02:23;4.15;;;2.05;;
11396;SDS011;5754;43.726;7.416;2022-09-21T03:04:58;3.17;;;2.12;;
11396;SDS011;5754;43.726;7.416;2022-09-21T03:07:32;5.00;;;2.20;;
11396;SDS011;5754;43.726;7.416;2022-09-21T03:10:09;3.17;;;1.83;;
11396;SDS011;5754;43.726;7.416;2022-09-21T03:12:43;3.17;;;2.05;;
11396;SDS011;5754;43.726;7.416;2022-09-21T03:15:19;3.00;;;1.92;;
11396;SDS011;5754;43.726;7.416;2022-09-21T03:17:53;2.62;;;1.87;;
11396;SDS011;5754;43.726;7.416;2022-09-21T03:20:28;4.82;;;1.92;;
11396;SDS011;5754;43.726;7.416;2022-09-21T03:23:05;2.05;;;1.87;;
11396;SDS011;5754;43.726;7.416;2022-09-21T03:25:42;3.62;;;2.00;;
11396;SDS011;5754;43.726;7.416;2022-09-21T03:28:16;5.78;;;2.03;;
11396;SDS011;5754;43.726;7.416;2022-09-21T03:30:50;4.62;;;2.28;;
11396;SDS011;5754;43.726;7.416;2022-09-21T03:33:25;2.65;;;1.90;;
11396;SDS011;5754;43.726;7.416;2022-09-21T03:36:00;4.60;;;1.93;;
11396;SDS011;5754;43.726;7.416;2022-09-21T03:38:35;2.43;;;1.90;;
11396;SDS011;5754;43.726;7.416;2022-09-21T03:41:09;2.30;;;1.92;;
11396;SDS011;5754;43.726;7.416;2022-09-21T03:43:45;5.32;;;1.90;;
11396;SDS011;5754;43.726;7.416;2022-09-21T03:46:19;2.25;;;1.87;;
11396;SDS011;5754;43.726;7.416;2022-09-21T03:48:54;2.22;;;1.77;;
11396;SDS011;5754;43.726;7.416;2022-09-21T03:51:29;2.35;;;1.77;;
11396;SDS011;5754;43.726;7.416;2022-09-21T03:54:04;2.97;;;1.98;;
11396;SDS011;5754;43.726;7.416;2022-09-21T03:56:38;2.37;;;1.80;;
11396;SDS011;5754;43.726;7.416;2022-09-21T03:59:13;3.67;;;2.10;;
11396;SDS011;5754;43.726;7.416;2022-09-21T04:01:48;3.78;;;2.00;;
11396;SDS011;5754;43.726;7.416;2022-09-21T04:04:22;4.37;;;2.03;;
11396;SDS011;5754;43.726;7.416;2022-09-21T04:06:57;3.72;;;2.00;;
11396;SDS011;5754;43.726;7.416;2022-09-21T04:09:32;2.30;;;1.80;;
11396;SDS011;5754;43.726;7.416;2022-09-21T04:12:08;2.60;;;2.22;;
11396;SDS011;5754;43.726;7.416;2022-09-21T04:14:43;3.17;;;2.00;;
11396;SDS011;5754;43.726;7.416;2022-09-21T04:17:17;3.17;;;1.87;;
11396;SDS011;5754;43.726;7.416;2022-09-21T04:19:51;3.50;;;2.78;;
11396;SDS011;5754;43.726;7.416;2022-09-21T04:22:26;4.00;;;2.33;;
11396;SDS011;5754;43.726;7.416;2022-09-21T04:25:00;2.57;;;2.13;;
11396;SDS011;5754;43.726;7.416;2022-09-21T04:27:35;2.40;;;2.10;;
11396;SDS011;5754;43.726;7.416;2022-09-21T04:30:12;2.97;;;2.00;;
11396;SDS011;5754;43.726;7.416;2022-09-21T04:32:46;4.45;;;1.92;;
11396;SDS011;5754;43.726;7.416;2022-09-21T04:35:21;3.75;;;2.20;;
11396;SDS011;5754;43.726;7.416;2022-09-21T04:37:56;2.20;;;2.00;;
11396;SDS011;5754;43.726;7.416;2022-09-21T04:40:30;3.87;;;2.47;;
11396;SDS011;5754;43.726;7.416;2022-09-21T04:43:05;5.12;;;2.10;;
11396;SDS011;5754;43.726;7.416;2022-09-21T04:45:39;5.70;;;2.90;;
11396;SDS011;5754;43.726;7.416;2022-09-21T04:48:14;4.00;;;2.40;;
11396;SDS011;5754;43.726;7.416;2022-09-21T04:50:48;2.92;;;2.25;;
11396;SDS011;5754;43.726;7.416;2022-09-21T04:53:23;2.45;;;2.03;;
11396;SDS011;5754;43.726;7.416;2022-09-21T04:55:57;3.17;;;2.20;;
11396;SDS011;5754;43.726;7.416;2022-09-21T04:58:31;3.60;;;2.20;;
11396;SDS011;5754;43.726;7.416;2022-09-21T05:01:06;4.17;;;2.20;;
11396;SDS011;5754;43.726;7.416;2022-09-21T05:03:40;3.67;;;1.95;;
11396;SDS011;5754;43.726;7.416;2022-09-21T05:06:15;3.35;;;2.28;;
11396;SDS011;5754;43.726;7.416;2022-09-21T05:08:50;3.17;;;2.10;;
11396;SDS011;5754;43.726;7.416;2022-09-21T05:11:44;4.90;;;2.47;;
11396;SDS011;5754;43.726;7.416;2022-09-21T05:14:18;4.45;;;2.00;;
11396;SDS011;5754;43.726;7.416;2022-09-21T05:16:53;4.30;;;2.37;;
11396;SDS011;5754;43.726;7.416;2022-09-21T05:19:27;5.20;;;2.30;;
11396;SDS011;5754;43.726;7.416;2022-09-21T05:22:02;4.60;;;2.40;;
11396;SDS011;5754;43.726;7.416;2022-09-21T05:24:36;4.37;;;2.70;;
11396;SDS011;5754;43.726;7.416;2022-09-21T05:27:10;3.42;;;2.33;;
11396;SDS011;5754;43.726;7.416;2022-09-21T05:29:45;3.37;;;2.70;;
11396;SDS011;5754;43.726;7.416;2022-09-21T05:32:21;4.67;;;2.73;;
11396;SDS011;5754;43.726;7.416;2022-09-21T05:38:15;7.00;;;2.43;;
11396;SDS011;5754;43.726;7.416;2022-09-21T05:40:50;7.55;;;2.17;;
11396;SDS011;5754;43.726;7.416;2022-09-21T05:43:26;3.90;;;2.60;;
11396;SDS011;5754;43.726;7.416;2022-09-21T05:46:01;4.18;;;2.50;;
11396;SDS011;5754;43.726;7.416;2022-09-21T05:48:39;7.40;;;2.83;;
11396;SDS011;5754;43.726;7.416;2022-09-21T06:00:53;9.90;;;4.30;;
11396;SDS011;5754;43.726;7.416;2022-09-21T06:03:31;6.53;;;4.22;;
11396;SDS011;5754;43.726;7.416;2022-09-21T06:06:08;14.10;;;4.22;;
11396;SDS011;5754;43.726;7.416;2022-09-21T06:08:42;8.52;;;3.70;;
11396;SDS011;5754;43.726;7.416;2022-09-21T06:11:17;7.10;;;3.03;;
11396;SDS011;5754;43.726;7.416;2022-09-21T06:13:51;3.70;;;2.78;;
11396;SDS011;5754;43.726;7.416;2022-09-21T06:16:25;5.93;;;2.60;;
11396;SDS011;5754;43.726;7.416;2022-09-21T06:19:00;4.60;;;2.40;;
11396;SDS011;5754;43.726;7.416;2022-09-21T06:21:34;7.28;;;2.87;;
11396;SDS011;5754;43.726;7.416;2022-09-21T06:24:09;5.57;;;2.40;;
11396;SDS011;5754;43.726;7.416;2022-09-21T06:26:45;5.43;;;3.17;;
11396;SDS011;5754;43.726;7.416;2022-09-21T06:29:19;3.87;;;2.30;;
11396;SDS011;5754;43.726;7.416;2022-09-21T06:31:56;5.30;;;2.47;;
11396;SDS011;5754;43.726;7.416;2022-09-21T06:34:30;3.60;;;2.50;;
11396;SDS011;5754;43.726;7.416;2022-09-21T06:39:49;3.35;;;2.10;;
11396;SDS011;5754;43.726;7.416;2022-09-21T06:42:24;5.85;;;2.45;;
11396;SDS011;5754;43.726;7.416;2022-09-21T06:44:59;6.78;;;2.47;;
11396;SDS011;5754;43.726;7.416;2022-09-21T06:47:36;4.15;;;2.30;;
11396;SDS011;5754;43.726;7.416;2022-09-21T06:50:11;3.35;;;2.33;;
11396;SDS011;5754;43.726;7.416;2022-09-21T06:52:45;4.47;;;2.40;;
11396;SDS011;5754;43.726;7.416;2022-09-21T06:55:20;3.28;;;2.30;;
11396;SDS011;5754;43.726;7.416;2022-09-21T06:58:00;4.82;;;2.40;;
11396;SDS011;5754;43.726;7.416;2022-09-21T07:00:35;3.15;;;2.08;;
11396;SDS011;5754;43.726;7.416;2022-09-21T07:03:10;2.25;;;2.00;;
11396;SDS011;5754;43.726;7.416;2022-09-21T07:05:45;4.60;;;2.25;;
11396;SDS011;5754;43.726;7.416;2022-09-21T07:08:19;2.25;;;2.05;;
11396;SDS011;5754;43.726;7.416;2022-09-21T07:11:25;6.05;;;2.30;;
11396;SDS011;5754;43.726;7.416;2022-09-21T07:14:01;4.30;;;2.30;;
11396;SDS011;5754;43.726;7.416;2022-09-21T07:16:36;3.20;;;2.37;;
11396;SDS011;5754;43.726;7.416;2022-09-21T07:19:12;2.85;;;2.08;;
11396;SDS011;5754;43.726;7.416;2022-09-21T07:21:52;12.07;;;2.53;;
11396;SDS011;5754;43.726;7.416;2022-09-21T07:24:27;5.05;;;2.20;;
11396;SDS011;5754;43.726;7.416;2022-09-21T07:27:01;3.65;;;2.37;;
11396;SDS011;5754;43.726;7.416;2022-09-21T07:29:36;3.35;;;2.30;;
11396;SDS011;5754;43.726;7.416;2022-09-21T07:32:11;4.47;;;2.22;;
11396;SDS011;5754;43.726;7.416;2022-09-21T07:34:46;3.00;;;2.12;;
11396;SDS011;5754;43.726;7.416;2022-09-21T07:37:21;5.15;;;1.92;;
11396;SDS011;5754;43.726;7.416;2022-09-21T07:39:56;4.55;;;2.08;;
11396;SDS011;5754;43.726;7.416;2022-09-21T07:42:30;3.10;;;2.00;;
11396;SDS011;5754;43.726;7.416;2022-09-21T07:45:05;4.15;;;1.95;;
11396;SDS011;5754;43.726;7.416;2022-09-21T07:47:40;4.43;;;2.12;;
11396;SDS011;5754;43.726;7.416;2022-09-21T07:50:15;4.68;;;1.95;;
11396;SDS011;5754;43.726;7.416;2022-09-21T07:52:49;2.90;;;2.10;;
11396;SDS011;5754;43.726;7.416;2022-09-21T07:55:23;2.25;;;2.05;;
11396;SDS011;5754;43.726;7.416;2022-09-21T07:57:58;4.47;;;2.20;;
11396;SDS011;5754;43.726;7.416;2022-09-21T08:00:51;4.72;;;2.22;;
11396;SDS011;5754;43.726;7.416;2022-09-21T08:03:26;5.30;;;2.42;;
11396;SDS011;5754;43.726;7.416;2022-09-21T08:06:00;3.80;;;1.87;;
11396;SDS011;5754;43.726;7.416;2022-09-21T08:08:35;4.03;;;2.20;;
11396;SDS011;5754;43.726;7.416;2022-09-21T08:11:09;3.55;;;2.15;;
11396;SDS011;5754;43.726;7.416;2022-09-21T08:13:45;4.37;;;2.10;;
11396;SDS011;5754;43.726;7.416;2022-09-21T08:16:20;4.75;;;1.90;;
11396;SDS011;5754;43.726;7.416;2022-09-21T08:18:54;3.58;;;2.08;;
11396;SDS011;5754;43.726;7.416;2022-09-21T08:21:29;2.50;;;2.12;;
11396;SDS011;5754;43.726;7.416;2022-09-21T08:24:04;2.30;;;2.10;;
11396;SDS011;5754;43.726;7.416;2022-09-21T08:26:38;2.60;;;1.98;;
11396;SDS011;5754;43.726;7.416;2022-09-21T08:29:12;2.92;;;2.40;;
11396;SDS011;5754;43.726;7.416;2022-09-21T08:31:47;7.12;;;2.60;;
11396;SDS011;5754;43.726;7.416;2022-09-21T08:34:21;3.37;;;2.12;;
11396;SDS011;5754;43.726;7.416;2022-09-21T08:36:57;5.30;;;2.53;;
11396;SDS011;5754;43.726;7.416;2022-09-21T08:39:31;2.55;;;2.20;;
11396;SDS011;5754;43.726;7.416;2022-09-21T08:42:09;4.22;;;2.20;;
11396;SDS011;5754;43.726;7.416;2022-09-21T08:44:50;3.97;;;2.25;;
11396;SDS011;5754;43.726;7.416;2022-09-21T08:50:38;4.65;;;2.70;;
11396;SDS011;5754;43.726;7.416;2022-09-21T08:53:16;2.55;;;2.35;;
11396;SDS011;5754;43.726;7.416;2022-09-21T08:55:54;2.60;;;1.95;;
11396;SDS011;5754;43.726;7.416;2022-09-21T08:58:30;4.62;;;2.30;;
11396;SDS011;5754;43.726;7.416;2022-09-21T09:13:46;5.25;;;2.15;;
11396;SDS011;5754;43.726;7.416;2022-09-21T09:16:30;8.23;;;2.50;;
11396;SDS011;5754;43.726;7.416;2022-09-21T09:19:18;5.40;;;2.42;;
11396;SDS011;5754;43.726;7.416;2022-09-21T09:21:54;10.25;;;3.08;;
11396;SDS011;5754;43.726;7.416;2022-09-21T09:24:49;11.05;;;3.78;;
11396;SDS011;5754;43.726;7.416;2022-09-21T09:27:26;7.65;;;3.58;;
11396;SDS011;5754;43.726;7.416;2022-09-21T09:30:16;10.80;;;4.03;;
11396;SDS011;5754;43.726;7.416;2022-09-21T09:39:12;9.98;;;3.17;;
11396;SDS011;5754;43.726;7.416;2022-09-21T09:46:48;8.95;;;3.50;;
11396;SDS011;5754;43.726;7.416;2022-09-21T09:49:38;12.70;;;3.08;;
11396;SDS011;5754;43.726;7.416;2022-09-21T09:52:13;11.95;;;3.25;;
11396;SDS011;5754;43.726;7.416;2022-09-21T09:54:49;8.38;;;2.60;;
11396;SDS011;5754;43.726;7.416;2022-09-21T09:57:28;6.35;;;2.90;;
11396;SDS011;5754;43.726;7.416;2022-09-21T10:00:04;7.55;;;2.95;;
11396;SDS011;5754;43.726;7.416;2022-09-21T10:02:51;10.68;;;2.70;;
11396;SDS011;5754;43.726;7.416;2022-09-21T10:05:31;6.22;;;2.35;;
11396;SDS011;5754;43.726;7.416;2022-09-21T10:11:00;7.55;;;3.10;;
11396;SDS011;5754;43.726;7.416;2022-09-21T10:13:36;9.18;;;2.35;;
11396;SDS011;5754;43.726;7.416;2022-09-21T10:16:17;4.18;;;2.40;;
11396;SDS011;5754;43.726;7.416;2022-09-21T10:18:53;4.07;;;1.97;;
11396;SDS011;5754;43.726;7.416;2022-09-21T10:21:35;7.32;;;2.30;;
11396;SDS011;5754;43.726;7.416;2022-09-21T10:24:29;6.22;;;2.35;;
11396;SDS011;5754;43.726;7.416;2022-09-21T10:27:06;8.00;;;2.40;;
11396;SDS011;5754;43.726;7.416;2022-09-21T10:29:46;6.22;;;2.15;;
11396;SDS011;5754;43.726;7.416;2022-09-21T10:32:23;7.43;;;2.10;;
11396;SDS011;5754;43.726;7.416;2022-09-21T10:34:59;8.13;;;2.17;;
11396;SDS011;5754;43.726;7.416;2022-09-21T10:37:40;8.80;;;2.30;;
11396;SDS011;5754;43.726;7.416;2022-09-21T10:43:19;5.82;;;2.00;;
11396;SDS011;5754;43.726;7.416;2022-09-21T10:45:57;5.90;;;2.20;;
11396;SDS011;5754;43.726;7.416;2022-09-21T10:48:31;5.28;;;1.92;;
11396;SDS011;5754;43.726;7.416;2022-09-21T10:51:06;6.60;;;2.00;;
11396;SDS011;5754;43.726;7.416;2022-09-21T10:53:53;7.55;;;2.33;;
11396;SDS011;5754;43.726;7.416;2022-09-21T10:56:29;5.30;;;2.12;;
11396;SDS011;5754;43.726;7.416;2022-09-21T10:59:24;6.03;;;1.90;;
11396;SDS011;5754;43.726;7.416;2022-09-21T11:01:59;8.93;;;2.47;;
11396;SDS011;5754;43.726;7.416;2022-09-21T11:04:39;8.30;;;2.10;;
11396;SDS011;5754;43.726;7.416;2022-09-21T11:07:34;5.70;;;2.10;;
11396;SDS011;5754;43.726;7.416;2022-09-21T11:10:23;6.45;;;1.77;;
11396;SDS011;5754;43.726;7.416;2022-09-21T11:19:16;8.52;;;2.20;;
11396;SDS011;5754;43.726;7.416;2022-09-21T11:22:42;5.55;;;1.73;;
11396;SDS011;5754;43.726;7.416;2022-09-21T11:25:24;4.12;;;1.70;;
11396;SDS011;5754;43.726;7.416;2022-09-21T11:28:24;5.63;;;1.70;;
11396;SDS011;5754;43.726;7.416;2022-09-21T11:31:26;3.60;;;1.70;;
11396;SDS011;5754;43.726;7.416;2022-09-21T11:38:24;5.18;;;1.98;;
11396;SDS011;5754;43.726;7.416;2022-09-21T11:41:17;6.40;;;2.00;;
11396;SDS011;5754;43.726;7.416;2022-09-21T11:49:46;3.90;;;1.73;;
11396;SDS011;5754;43.726;7.416;2022-09-21T11:52:48;4.32;;;1.87;;
11396;SDS011;5754;43.726;7.416;2022-09-21T12:02:38;6.65;;;1.60;;
11396;SDS011;5754;43.726;7.416;2022-09-21T12:05:27;7.62;;;1.80;;
11396;SDS011;5754;43.726;7.416;2022-09-21T12:13:19;5.83;;;2.03;;
11396;SDS011;5754;43.726;7.416;2022-09-21T12:16:05;4.67;;;2.13;;
11396;SDS011;5754;43.726;7.416;2022-09-21T12:19:08;7.60;;;2.57;;
11396;SDS011;5754;43.726;7.416;2022-09-21T12:21:48;9.95;;;2.15;;
11396;SDS011;5754;43.726;7.416;2022-09-21T12:24:30;5.93;;;1.83;;
11396;SDS011;5754;43.726;7.416;2022-09-21T12:27:08;3.93;;;1.83;;
11396;SDS011;5754;43.726;7.416;2022-09-21T12:29:46;4.68;;;1.75;;
11396;SDS011;5754;43.726;7.416;2022-09-21T12:35:24;7.50;;;2.42;;
11396;SDS011;5754;43.726;7.416;2022-09-21T12:46:48;7.23;;;2.13;;
11396;SDS011;5754;43.726;7.416;2022-09-21T12:49:27;8.63;;;2.37;;
11396;SDS011;5754;43.726;7.416;2022-09-21T12:52:04;4.60;;;2.07;;
11396;SDS011;5754;43.726;7.416;2022-09-21T13:04:17;7.27;;;2.10;;
11396;SDS011;5754;43.726;7.416;2022-09-21T13:10:58;4.23;;;1.87;;
11396;SDS011;5754;43.726;7.416;2022-09-21T13:13:49;4.83;;;1.60;;
11396;SDS011;5754;43.726;7.416;2022-09-21T13:16:29;7.70;;;1.80;;
11396;SDS011;5754;43.726;7.416;2022-09-21T13:22:18;7.20;;;2.45;;
11396;SDS011;5754;43.726;7.416;2022-09-21T13:25:17;9.10;;;2.10;;
11396;SDS011;5754;43.726;7.416;2022-09-21T13:34:20;5.23;;;1.53;;
11396;SDS011;5754;43.726;7.416;2022-09-21T13:43:17;7.80;;;1.80;;
11396;SDS011;5754;43.726;7.416;2022-09-21T13:45:53;4.83;;;2.00;;
11396;SDS011;5754;43.726;7.416;2022-09-21T13:48:28;12.57;;;2.10;;
11396;SDS011;5754;43.726;7.416;2022-09-21T13:51:05;7.13;;;2.13;;
11396;SDS011;5754;43.726;7.416;2022-09-21T13:53:40;5.07;;;2.10;;
11396;SDS011;5754;43.726;7.416;2022-09-21T13:56:18;7.40;;;2.10;;
11396;SDS011;5754;43.726;7.416;2022-09-21T13:58:55;9.27;;;2.20;;
11396;SDS011;5754;43.726;7.416;2022-09-21T14:01:31;6.60;;;2.30;;
11396;SDS011;5754;43.726;7.416;2022-09-21T14:04:23;9.67;;;2.67;;
11396;SDS011;5754;43.726;7.416;2022-09-21T14:07:01;6.93;;;2.73;;
11396;SDS011;5754;43.726;7.416;2022-09-21T14:09:41;5.30;;;2.60;;
11396;SDS011;5754;43.726;7.416;2022-09-21T14:12:18;7.57;;;2.53;;
11396;SDS011;5754;43.726;7.416;2022-09-21T14:22:44;4.63;;;2.30;;
11396;SDS011;5754;43.726;7.416;2022-09-21T14:25:24;9.47;;;2.80;;
11396;SDS011;5754;43.726;7.416;2022-09-21T14:27:59;5.63;;;2.50;;
11396;SDS011;5754;43.726;7.416;2022-09-21T14:30:36;4.37;;;2.40;;
11396;SDS011;5754;43.726;7.416;2022-09-21T14:33:32;8.33;;;2.37;;
11396;SDS011;5754;43.726;7.416;2022-09-21T14:36:10;7.20;;;2.50;;
11396;SDS011;5754;43.726;7.416;2022-09-21T14:38:46;6.83;;;2.50;;
11396;SDS011;5754;43.726;7.416;2022-09-21T14:41:31;7.33;;;2.63;;
11396;SDS011;5754;43.726;7.416;2022-09-21T14:44:16;7.20;;;2.23;;
11396;SDS011;5754;43.726;7.416;2022-09-21T14:50:32;7.87;;;2.40;;
11396;SDS011;5754;43.726;7.416;2022-09-21T14:53:17;4.73;;;2.10;;
11396;SDS011;5754;43.726;7.416;2022-09-21T14:57:23;6.43;;;2.40;;
11396;SDS011;5754;43.726;7.416;2022-09-21T15:00:20;6.70;;;2.43;;
11396;SDS011;5754;43.726;7.416;2022-09-21T15:11:27;13.03;;;2.33;;
11396;SDS011;5754;43.726;7.416;2022-09-21T15:17:26;8.83;;;2.23;;
11396;SDS011;5754;43.726;7.416;2022-09-21T15:20:13;8.03;;;2.27;;
11396;SDS011;5754;43.726;7.416;2022-09-21T15:22:52;6.37;;;2.90;;
11396;SDS011;5754;43.726;7.416;2022-09-21T15:25:30;5.87;;;2.13;;
11396;SDS011;5754;43.726;7.416;2022-09-21T15:28:08;5.80;;;2.20;;
11396;SDS011;5754;43.726;7.416;2022-09-21T15:30:45;7.63;;;2.33;;
11396;SDS011;5754;43.726;7.416;2022-09-21T15:33:19;9.47;;;2.67;;
11396;SDS011;5754;43.726;7.416;2022-09-21T15:35:58;6.67;;;2.60;;
11396;SDS011;5754;43.726;7.416;2022-09-21T15:38:33;7.27;;;2.00;;
11396;SDS011;5754;43.726;7.416;2022-09-21T15:41:08;9.77;;;2.63;;
11396;SDS011;5754;43.726;7.416;2022-09-21T15:43:51;8.77;;;2.57;;
11396;SDS011;5754;43.726;7.416;2022-09-21T15:46:38;5.63;;;2.47;;
11396;SDS011;5754;43.726;7.416;2022-09-21T15:49:16;6.40;;;2.70;;
11396;SDS011;5754;43.726;7.416;2022-09-21T15:51:58;7.93;;;2.90;;
11396;SDS011;5754;43.726;7.416;2022-09-21T15:54:56;5.63;;;3.00;;
11396;SDS011;5754;43.726;7.416;2022-09-21T15:57:38;5.27;;;2.80;;
11396;SDS011;5754;43.726;7.416;2022-09-21T16:00:18;6.87;;;2.60;;
11396;SDS011;5754;43.726;7.416;2022-09-21T16:03:01;9.57;;;2.97;;
11396;SDS011;5754;43.726;7.416;2022-09-21T16:05:44;6.43;;;2.40;;
11396;SDS011;5754;43.726;7.416;2022-09-21T16:08:27;4.63;;;2.20;;
11396;SDS011;5754;43.726;7.416;2022-09-21T16:17:34;8.07;;;3.13;;
11396;SDS011;5754;43.726;7.416;2022-09-21T16:20:16;8.40;;;3.23;;
11396;SDS011;5754;43.726;7.416;2022-09-21T16:22:52;5.60;;;3.20;;
11396;SDS011;5754;43.726;7.416;2022-09-21T16:25:36;6.70;;;3.00;;
11396;SDS011;5754;43.726;7.416;2022-09-21T16:28:36;5.70;;;2.63;;
11396;SDS011;5754;43.726;7.416;2022-09-21T16:36:33;13.63;;;3.27;;
11396;SDS011;5754;43.726;7.416;2022-09-21T16:39:10;8.20;;;3.43;;
11396;SDS011;5754;43.726;7.416;2022-09-21T16:41:55;9.23;;;3.77;;
11396;SDS011;5754;43.726;7.416;2022-09-21T16:44:32;8.10;;;2.97;;
11396;SDS011;5754;43.726;7.416;2022-09-21T16:47:19;7.33;;;2.80;;
11396;SDS011;5754;43.726;7.416;2022-09-21T16:50:00;5.37;;;3.10;;
11396;SDS011;5754;43.726;7.416;2022-09-21T16:52:36;4.63;;;2.80;;
11396;SDS011;5754;43.726;7.416;2022-09-21T16:55:11;6.00;;;3.27;;
11396;SDS011;5754;43.726;7.416;2022-09-21T16:57:47;6.77;;;3.10;;
11396;SDS011;5754;43.726;7.416;2022-09-21T17:00:22;5.07;;;3.10;;
11396;SDS011;5754;43.726;7.416;2022-09-21T17:02:57;7.13;;;2.80;;
11396;SDS011;5754;43.726;7.416;2022-09-21T17:05:35;4.73;;;2.00;;
11396;SDS011;5754;43.726;7.416;2022-09-21T17:08:09;5.13;;;2.20;;
11396;SDS011;5754;43.726;7.416;2022-09-21T17:10:44;5.93;;;2.40;;
11396;SDS011;5754;43.726;7.416;2022-09-21T17:13:19;3.73;;;2.30;;
11396;SDS011;5754;43.726;7.416;2022-09-21T17:15:54;5.30;;;2.23;;
11396;SDS011;5754;43.726;7.416;2022-09-21T17:21:11;5.83;;;2.33;;
11396;SDS011;5754;43.726;7.416;2022-09-21T17:23:46;8.67;;;2.50;;
11396;SDS011;5754;43.726;7.416;2022-09-21T17:26:20;7.87;;;2.50;;
11396;SDS011;5754;43.726;7.416;2022-09-21T17:28:54;7.13;;;2.50;;
11396;SDS011;5754;43.726;7.416;2022-09-21T17:31:29;4.23;;;2.40;;
11396;SDS011;5754;43.726;7.416;2022-09-21T17:34:12;4.63;;;2.07;;
11396;SDS011;5754;43.726;7.416;2022-09-21T17:36:48;8.13;;;2.37;;
11396;SDS011;5754;43.726;7.416;2022-09-21T17:39:22;6.90;;;2.60;;
11396;SDS011;5754;43.726;7.416;2022-09-21T17:42:11;6.87;;;2.53;;
11396;SDS011;5754;43.726;7.416;2022-09-21T17:44:55;6.27;;;2.33;;
11396;SDS011;5754;43.726;7.416;2022-09-21T17:47:32;5.37;;;2.60;;
11396;SDS011;5754;43.726;7.416;2022-09-21T17:50:23;6.10;;;2.60;;
11396;SDS011;5754;43.726;7.416;2022-09-21T17:52:59;5.97;;;2.37;;
11396;SDS011;5754;43.726;7.416;2022-09-21T17:55:54;8.23;;;2.43;;
11396;SDS011;5754;43.726;7.416;2022-09-21T18:01:47;4.93;;;2.80;;
11396;SDS011;5754;43.726;7.416;2022-09-21T18:04:22;4.53;;;2.23;;
11396;SDS011;5754;43.726;7.416;2022-09-21T18:06:58;3.07;;;2.10;;
11396;SDS011;5754;43.726;7.416;2022-09-21T18:09:33;4.13;;;2.00;;
11396;SDS011;5754;43.726;7.416;2022-09-21T18:24:26;5.10;;;2.20;;
11396;SDS011;5754;43.726;7.416;2022-09-21T18:27:03;4.97;;;2.20;;
11396;SDS011;5754;43.726;7.416;2022-09-21T18:29:39;6.00;;;2.50;;
11396;SDS011;5754;43.726;7.416;2022-09-21T18:32:29;4.13;;;2.20;;
11396;SDS011;5754;43.726;7.416;2022-09-21T18:38:11;3.13;;;2.00;;
11396;SDS011;5754;43.726;7.416;2022-09-21T18:41:08;4.37;;;2.37;;
11396;SDS011;5754;43.726;7.416;2022-09-21T18:46:44;3.97;;;2.20;;
11396;SDS011;5754;43.726;7.416;2022-09-21T18:52:27;5.53;;;2.37;;
11396;SDS011;5754;43.726;7.416;2022-09-21T18:55:10;7.13;;;3.00;;
11396;SDS011;5754;43.726;7.416;2022-09-21T18:57:47;5.53;;;3.23;;
11396;SDS011;5754;43.726;7.416;2022-09-21T19:00:23;4.70;;;2.50;;
11396;SDS011;5754;43.726;7.416;2022-09-21T19:03:04;7.00;;;2.80;;
11396;SDS011;5754;43.726;7.416;2022-09-21T19:30:35;9.20;;;2.83;;
11396;SDS011;5754;43.726;7.416;2022-09-21T19:33:20;4.53;;;2.93;;
11396;SDS011;5754;43.726;7.416;2022-09-21T19:36:11;7.63;;;3.00;;
11396;SDS011;5754;43.726;7.416;2022-09-21T19:38:47;7.73;;;3.30;;
11396;SDS011;5754;43.726;7.416;2022-09-21T19:48:43;4.83;;;2.73;;
11396;SDS011;5754;43.726;7.416;2022-09-21T19:51:23;6.87;;;3.23;;
11396;SDS011;5754;43.726;7.416;2022-09-21T19:53:59;6.00;;;3.10;;
11396;SDS011;5754;43.726;7.416;2022-09-21T19:56:54;7.70;;;3.20;;
11396;SDS011;5754;43.726;7.416;2022-09-21T19:59:47;6.43;;;3.03;;